sensor_id;sensor_type;location;lat;lon;timestamp;pressure;altitude;pressure_sealevel;temperature;humidity
40838;BME280;29632;49.168;9.848;2022-07-04T00:00:30;96969.34;;;24.83;40.54
40838;BME280;29632;49.168;9.848;2022-07-04T00:02:55;96982.66;;;24.83;40.78
40838;BME280;29632;49.168;9.848;2022-07-04T00:05:21;96988.84;;;24.83;40.68
40838;BME280;29632;49.168;9.848;2022-07-04T00:07:49;96983.84;;;24.87;41.01
40838;BME280;29632;49.168;9.848;2022-07-04T00:10:19;96995.09;;;24.89;40.88
40838;BME280;29632;49.168;9.848;2022-07-04T00:12:47;96983.03;;;24.86;40.81
40838;BME280;29632;49.168;9.848;2022-07-04T00:15:14;96980.13;;;24.88;41.05
40838;BME280;29632;49.168;9.848;2022-07-04T00:17:40;96973.78;;;24.89;41.10
40838;BME280;29632;49.168;9.848;2022-07-04T00:20:07;96969.81;;;24.92;41.13
40838;BME280;29632;49.168;9.848;2022-07-04T00:22:34;96971.47;;;24.93;41.43
40838;BME280;29632;49.168;9.848;2022-07-04T00:25:00;96975.75;;;24.94;41.22
40838;BME280;29632;49.168;9.848;2022-07-04T00:27:26;96978.41;;;24.94;41.46
40838;BME280;29632;49.168;9.848;2022-07-04T00:29:52;96971.22;;;24.94;41.33
40838;BME280;29632;49.168;9.848;2022-07-04T00:32:19;96963.00;;;24.96;41.30
40838;BME280;29632;49.168;9.848;2022-07-04T00:34:45;96955.81;;;24.96;41.64
40838;BME280;29632;49.168;9.848;2022-07-04T00:37:10;96954.56;;;24.99;41.53
40838;BME280;29632;49.168;9.848;2022-07-04T00:39:36;96956.16;;;25.00;41.65
40838;BME280;29632;49.168;9.848;2022-07-04T00:42:03;96962.06;;;25.02;41.00
40838;BME280;29632;49.168;9.848;2022-07-04T00:44:30;96951.41;;;25.02;41.31
40838;BME280;29632;49.168;9.848;2022-07-04T00:46:56;96950.38;;;25.03;40.97
40838;BME280;29632;49.168;9.848;2022-07-04T00:49:22;96948.53;;;25.03;40.76
40838;BME280;29632;49.168;9.848;2022-07-04T00:51:48;96953.06;;;25.03;40.75
40838;BME280;29632;49.168;9.848;2022-07-04T00:54:16;96952.81;;;25.04;40.45
40838;BME280;29632;49.168;9.848;2022-07-04T00:56:44;96950.16;;;25.04;40.76
40838;BME280;29632;49.168;9.848;2022-07-04T00:59:11;96957.31;;;25.04;41.05
40838;BME280;29632;49.168;9.848;2022-07-04T01:01:38;96956.53;;;25.03;41.04
40838;BME280;29632;49.168;9.848;2022-07-04T01:04:05;96950.16;;;25.04;40.74
40838;BME280;29632;49.168;9.848;2022-07-04T01:06:33;96955.72;;;25.03;40.94
40838;BME280;29632;49.168;9.848;2022-07-04T01:08:59;96962.91;;;25.02;40.87
40838;BME280;29632;49.168;9.848;2022-07-04T01:11:26;96961.63;;;25.05;40.87
40838;BME280;29632;49.168;9.848;2022-07-04T01:13:54;96965.91;;;25.06;41.00
40838;BME280;29632;49.168;9.848;2022-07-04T01:16:20;96964.28;;;25.05;40.66
40838;BME280;29632;49.168;9.848;2022-07-04T01:18:46;96959.97;;;25.04;40.74
40838;BME280;29632;49.168;9.848;2022-07-04T01:21:11;96953.06;;;25.03;40.82
40838;BME280;29632;49.168;9.848;2022-07-04T01:23:39;96957.56;;;25.02;40.69
40838;BME280;29632;49.168;9.848;2022-07-04T01:26:05;96963.13;;;25.01;40.77
40838;BME280;29632;49.168;9.848;2022-07-04T01:28:31;96964.41;;;24.98;40.90
40838;BME280;29632;49.168;9.848;2022-07-04T01:30:57;96960.34;;;24.96;40.67
40838;BME280;29632;49.168;9.848;2022-07-04T01:33:23;96960.13;;;24.97;40.76
40838;BME280;29632;49.168;9.848;2022-07-04T01:35:49;96962.31;;;25.00;40.64
40838;BME280;29632;49.168;9.848;2022-07-04T01:38:15;96966.81;;;25.00;40.92
40838;BME280;29632;49.168;9.848;2022-07-04T01:40:40;96956.63;;;24.97;40.92
40838;BME280;29632;49.168;9.848;2022-07-04T01:43:06;96950.72;;;24.95;40.90
40838;BME280;29632;49.168;9.848;2022-07-04T01:45:32;96958.72;;;24.95;40.70
40838;BME280;29632;49.168;9.848;2022-07-04T01:48:09;96960.56;;;24.94;40.74
40838;BME280;29632;49.168;9.848;2022-07-04T01:50:35;96969.38;;;24.95;40.59
40838;BME280;29632;49.168;9.848;2022-07-04T01:53:01;96970.19;;;24.95;40.68
40838;BME280;29632;49.168;9.848;2022-07-04T01:55:28;96971.22;;;24.94;40.52
40838;BME280;29632;49.168;9.848;2022-07-04T01:57:54;96971.81;;;24.96;40.74
40838;BME280;29632;49.168;9.848;2022-07-04T02:00:21;96966.72;;;24.95;40.74
40838;BME280;29632;49.168;9.848;2022-07-04T02:03:05;96970.09;;;24.90;40.67
40838;BME280;29632;49.168;9.848;2022-07-04T02:05:31;96970.31;;;24.88;41.01
40838;BME280;29632;49.168;9.848;2022-07-04T02:07:57;96978.06;;;24.90;40.90
40838;BME280;29632;49.168;9.848;2022-07-04T02:10:23;96979.91;;;24.90;41.08
40838;BME280;29632;49.168;9.848;2022-07-04T02:12:49;96984.66;;;24.87;41.14
40838;BME280;29632;49.168;9.848;2022-07-04T02:15:38;96979.22;;;24.82;41.54
40838;BME280;29632;49.168;9.848;2022-07-04T02:18:06;96989.63;;;24.84;41.21
40838;BME280;29632;49.168;9.848;2022-07-04T02:20:34;96989.28;;;24.80;41.55
40838;BME280;29632;49.168;9.848;2022-07-04T02:23:00;96991.81;;;24.75;41.30
40838;BME280;29632;49.168;9.848;2022-07-04T02:25:26;97002.94;;;24.72;41.13
40838;BME280;29632;49.168;9.848;2022-07-04T02:27:52;97000.25;;;24.72;41.12
40838;BME280;29632;49.168;9.848;2022-07-04T02:30:18;97010.34;;;24.70;41.42
40838;BME280;29632;49.168;9.848;2022-07-04T02:32:44;97017.75;;;24.68;41.02
40838;BME280;29632;49.168;9.848;2022-07-04T02:35:11;97012.88;;;24.65;41.29
40838;BME280;29632;49.168;9.848;2022-07-04T02:37:37;97008.81;;;24.62;41.49
40838;BME280;29632;49.168;9.848;2022-07-04T02:40:04;97022.00;;;24.57;41.52
40838;BME280;29632;49.168;9.848;2022-07-04T02:42:32;97025.69;;;24.56;41.73
40838;BME280;29632;49.168;9.848;2022-07-04T02:44:59;97027.78;;;24.54;41.35
40838;BME280;29632;49.168;9.848;2022-07-04T02:47:25;97027.78;;;24.54;41.70
40838;BME280;29632;49.168;9.848;2022-07-04T02:49:51;97029.47;;;24.48;41.49
40838;BME280;29632;49.168;9.848;2022-07-04T02:52:17;97035.47;;;24.44;41.66
40838;BME280;29632;49.168;9.848;2022-07-04T02:54:43;97035.31;;;24.39;41.50
40838;BME280;29632;49.168;9.848;2022-07-04T02:57:10;97035.41;;;24.32;41.56
40838;BME280;29632;49.168;9.848;2022-07-04T02:59:36;97035.28;;;24.27;41.86
40838;BME280;29632;49.168;9.848;2022-07-04T03:02:02;97037.56;;;24.23;41.67
40838;BME280;29632;49.168;9.848;2022-07-04T03:04:27;97037.69;;;24.17;42.07
40838;BME280;29632;49.168;9.848;2022-07-04T03:06:53;97040.22;;;24.11;41.79
40838;BME280;29632;49.168;9.848;2022-07-04T03:09:19;97045.16;;;24.08;42.12
40838;BME280;29632;49.168;9.848;2022-07-04T03:11:45;97043.75;;;24.05;42.03
40838;BME280;29632;49.168;9.848;2022-07-04T03:14:11;97041.88;;;24.06;42.03
40838;BME280;29632;49.168;9.848;2022-07-04T03:16:37;97050.47;;;24.08;41.93
40838;BME280;29632;49.168;9.848;2022-07-04T03:19:03;97048.63;;;24.08;41.96
40838;BME280;29632;49.168;9.848;2022-07-04T03:21:29;97052.31;;;24.07;41.84
40838;BME280;29632;49.168;9.848;2022-07-04T03:23:55;97052.31;;;24.07;41.92
40838;BME280;29632;49.168;9.848;2022-07-04T03:26:29;97051.13;;;24.03;42.13
40838;BME280;29632;49.168;9.848;2022-07-04T03:28:57;97053.81;;;24.03;42.29
40838;BME280;29632;49.168;9.848;2022-07-04T03:31:23;97053.59;;;24.05;42.13
40838;BME280;29632;49.168;9.848;2022-07-04T03:33:50;97050.94;;;24.05;42.21
40838;BME280;29632;49.168;9.848;2022-07-04T03:36:16;97058.69;;;24.06;42.23
40838;BME280;29632;49.168;9.848;2022-07-04T03:38:43;97059.28;;;24.08;42.29
40838;BME280;29632;49.168;9.848;2022-07-04T03:41:09;97062.72;;;24.09;41.94
40838;BME280;29632;49.168;9.848;2022-07-04T03:43:35;97061.34;;;24.06;42.00
40838;BME280;29632;49.168;9.848;2022-07-04T03:46:01;97064.00;;;24.06;42.17
40838;BME280;29632;49.168;9.848;2022-07-04T03:48:27;97064.81;;;24.07;42.18
40838;BME280;29632;49.168;9.848;2022-07-04T03:50:53;97074.44;;;24.08;42.40
40838;BME280;29632;49.168;9.848;2022-07-04T03:53:19;97066.44;;;24.08;42.27
40838;BME280;29632;49.168;9.848;2022-07-04T03:55:45;97071.16;;;24.06;42.24
40838;BME280;29632;49.168;9.848;2022-07-04T03:58:11;97070.34;;;24.05;42.29
40838;BME280;29632;49.168;9.848;2022-07-04T04:00:37;97077.75;;;24.03;42.35
40838;BME280;29632;49.168;9.848;2022-07-04T04:03:03;97083.72;;;23.99;42.33
40838;BME280;29632;49.168;9.848;2022-07-04T04:05:48;97078.47;;;23.92;42.26
40838;BME280;29632;49.168;9.848;2022-07-04T04:08:14;97082.75;;;23.93;42.21
40838;BME280;29632;49.168;9.848;2022-07-04T04:10:40;97088.09;;;23.93;42.41
40838;BME280;29632;49.168;9.848;2022-07-04T04:13:06;97095.47;;;23.91;42.38
40838;BME280;29632;49.168;9.848;2022-07-04T04:15:31;97094.69;;;23.90;42.42
40838;BME280;29632;49.168;9.848;2022-07-04T04:17:57;97087.72;;;23.89;42.35
40838;BME280;29632;49.168;9.848;2022-07-04T04:20:23;97083.06;;;23.85;42.55
40838;BME280;29632;49.168;9.848;2022-07-04T04:22:49;97083.06;;;23.85;42.49
40838;BME280;29632;49.168;9.848;2022-07-04T04:25:16;97087.13;;;23.87;42.70
40838;BME280;29632;49.168;9.848;2022-07-04T04:27:42;97086.28;;;23.87;42.46
40838;BME280;29632;49.168;9.848;2022-07-04T04:30:08;97089.78;;;23.87;42.57
40838;BME280;29632;49.168;9.848;2022-07-04T04:32:34;97093.84;;;23.90;42.72
40838;BME280;29632;49.168;9.848;2022-07-04T04:35:00;97092.59;;;23.92;42.53
40838;BME280;29632;49.168;9.848;2022-07-04T04:37:26;97098.94;;;23.91;42.73
40838;BME280;29632;49.168;9.848;2022-07-04T04:39:51;97096.28;;;23.91;42.76
40838;BME280;29632;49.168;9.848;2022-07-04T04:42:17;97095.25;;;23.92;42.96
40838;BME280;29632;49.168;9.848;2022-07-04T04:44:43;97096.88;;;23.93;42.85
40838;BME280;29632;49.168;9.848;2022-07-04T04:47:09;97101.75;;;23.97;42.75
40838;BME280;29632;49.168;9.848;2022-07-04T04:49:35;97111.59;;;23.96;42.45
40838;BME280;29632;49.168;9.848;2022-07-04T04:52:00;97106.91;;;23.91;42.74
40838;BME280;29632;49.168;9.848;2022-07-04T04:54:26;97108.56;;;23.92;42.88
40838;BME280;29632;49.168;9.848;2022-07-04T04:56:52;97113.19;;;23.97;42.60
40838;BME280;29632;49.168;9.848;2022-07-04T04:59:17;97111.16;;;23.99;42.83
40838;BME280;29632;49.168;9.848;2022-07-04T05:01:43;97121.53;;;24.01;42.75
40838;BME280;29632;49.168;9.848;2022-07-04T05:04:09;97119.56;;;23.96;42.84
40838;BME280;29632;49.168;9.848;2022-07-04T05:06:35;97117.50;;;23.98;42.64
40838;BME280;29632;49.168;9.848;2022-07-04T05:09:01;97121.19;;;23.97;42.83
40838;BME280;29632;49.168;9.848;2022-07-04T05:11:27;97134.47;;;23.97;43.00
40838;BME280;29632;49.168;9.848;2022-07-04T05:13:53;97137.59;;;23.94;42.83
40838;BME280;29632;49.168;9.848;2022-07-04T05:16:18;97129.25;;;23.90;42.96
40838;BME280;29632;49.168;9.848;2022-07-04T05:18:44;97141.06;;;23.94;42.89
40838;BME280;29632;49.168;9.848;2022-07-04T05:21:10;97141.06;;;23.94;42.94
40838;BME280;29632;49.168;9.848;2022-07-04T05:23:35;97148.59;;;23.98;43.30
40838;BME280;29632;49.168;9.848;2022-07-04T05:26:01;97151.63;;;24.01;43.21
40838;BME280;29632;49.168;9.848;2022-07-04T05:28:27;97148.28;;;24.06;42.89
40838;BME280;29632;49.168;9.848;2022-07-04T05:30:52;97146.25;;;24.08;42.85
40838;BME280;29632;49.168;9.848;2022-07-04T05:33:18;97153.19;;;24.09;42.96
40838;BME280;29632;49.168;9.848;2022-07-04T05:35:44;97150.31;;;24.10;43.18
40838;BME280;29632;49.168;9.848;2022-07-04T05:38:10;97153.19;;;24.09;42.84
40838;BME280;29632;49.168;9.848;2022-07-04T05:40:36;97156.06;;;24.07;43.16
40838;BME280;29632;49.168;9.848;2022-07-04T05:43:01;97155.03;;;24.08;42.95
40838;BME280;29632;49.168;9.848;2022-07-04T05:45:27;97155.63;;;24.10;43.07
40838;BME280;29632;49.168;9.848;2022-07-04T05:47:53;97166.84;;;24.12;43.22
40838;BME280;29632;49.168;9.848;2022-07-04T05:50:19;97161.53;;;24.12;43.17
40838;BME280;29632;49.168;9.848;2022-07-04T05:52:44;97161.75;;;24.11;43.05
40838;BME280;29632;49.168;9.848;2022-07-04T05:55:10;97154.13;;;24.15;43.14
40838;BME280;29632;49.168;9.848;2022-07-04T05:57:36;97152.91;;;24.17;43.08
40838;BME280;29632;49.168;9.848;2022-07-04T06:00:03;97152.22;;;24.22;43.08
40838;BME280;29632;49.168;9.848;2022-07-04T06:02:29;97156.88;;;24.26;42.79
40838;BME280;29632;49.168;9.848;2022-07-04T06:04:55;97165.44;;;24.28;42.85
40838;BME280;29632;49.168;9.848;2022-07-04T06:07:20;97156.22;;;24.31;43.10
40838;BME280;29632;49.168;9.848;2022-07-04T06:09:46;97158.66;;;24.33;42.84
40838;BME280;29632;49.168;9.848;2022-07-04T06:12:12;97161.69;;;24.36;42.75
40838;BME280;29632;49.168;9.848;2022-07-04T06:14:38;97159.97;;;24.42;42.88
40838;BME280;29632;49.168;9.848;2022-07-04T06:17:04;97160.94;;;24.47;42.71
40838;BME280;29632;49.168;9.848;2022-07-04T06:19:30;97162.56;;;24.48;42.73
40838;BME280;29632;49.168;9.848;2022-07-04T06:21:56;97152.69;;;24.56;42.67
40838;BME280;29632;49.168;9.848;2022-07-04T06:24:22;97160.22;;;24.59;42.19
40838;BME280;29632;49.168;9.848;2022-07-04T06:26:48;97158.06;;;24.67;42.10
40838;BME280;29632;49.168;9.848;2022-07-04T06:29:14;97156.25;;;24.80;42.02
40838;BME280;29632;49.168;9.848;2022-07-04T06:31:40;97154.31;;;24.87;41.94
40838;BME280;29632;49.168;9.848;2022-07-04T06:34:06;97162.22;;;24.94;41.82
40838;BME280;29632;49.168;9.848;2022-07-04T06:36:50;97161.97;;;24.95;41.95
40838;BME280;29632;49.168;9.848;2022-07-04T06:39:16;97166.63;;;25.00;41.54
40838;BME280;29632;49.168;9.848;2022-07-04T06:41:41;97162.47;;;25.04;41.46
40838;BME280;29632;49.168;9.848;2022-07-04T06:44:07;97165.63;;;25.13;41.40
40838;BME280;29632;49.168;9.848;2022-07-04T06:46:33;97169.47;;;25.17;41.69
40838;BME280;29632;49.168;9.848;2022-07-04T06:48:58;97166.72;;;25.23;41.25
40838;BME280;29632;49.168;9.848;2022-07-04T06:51:24;97160.03;;;25.33;41.45
40838;BME280;29632;49.168;9.848;2022-07-04T06:53:50;97157.72;;;25.36;41.33
40838;BME280;29632;49.168;9.848;2022-07-04T06:56:17;97161.75;;;25.39;41.16
40838;BME280;29632;49.168;9.848;2022-07-04T06:58:43;97158.66;;;25.42;41.27
40838;BME280;29632;49.168;9.848;2022-07-04T07:01:09;97147.31;;;25.47;41.07
40838;BME280;29632;49.168;9.848;2022-07-04T07:03:35;97150.31;;;25.50;40.77
40838;BME280;29632;49.168;9.848;2022-07-04T07:06:02;97145.69;;;25.57;40.99
40838;BME280;29632;49.168;9.848;2022-07-04T07:08:29;97143.38;;;25.61;40.97
40838;BME280;29632;49.168;9.848;2022-07-04T07:10:57;97125.84;;;25.65;40.88
40838;BME280;29632;49.168;9.848;2022-07-04T07:13:23;97126.56;;;25.72;40.49
40838;BME280;29632;49.168;9.848;2022-07-04T07:15:48;97127.84;;;25.81;40.99
40838;BME280;29632;49.168;9.848;2022-07-04T07:18:14;97119.50;;;25.90;40.88
40838;BME280;29632;49.168;9.848;2022-07-04T07:20:42;97121.34;;;26.01;40.63
40838;BME280;29632;49.168;9.848;2022-07-04T07:23:08;97124.69;;;26.08;40.47
40838;BME280;29632;49.168;9.848;2022-07-04T07:25:34;97122.94;;;26.14;40.72
40838;BME280;29632;49.168;9.848;2022-07-04T07:27:59;97113.44;;;26.18;40.50
40838;BME280;29632;49.168;9.848;2022-07-04T07:30:26;97115.38;;;26.23;40.66
40838;BME280;29632;49.168;9.848;2022-07-04T07:32:52;97116.53;;;26.27;40.40
40838;BME280;29632;49.168;9.848;2022-07-04T07:35:17;97117.91;;;26.29;40.43
40838;BME280;29632;49.168;9.848;2022-07-04T07:37:43;97123.34;;;26.34;40.27
40838;BME280;29632;49.168;9.848;2022-07-04T07:40:09;97121.50;;;26.35;40.33
40838;BME280;29632;49.168;9.848;2022-07-04T07:42:35;97119.44;;;26.37;40.35
40838;BME280;29632;49.168;9.848;2022-07-04T07:45:01;97122.66;;;26.39;40.04
40838;BME280;29632;49.168;9.848;2022-07-04T07:47:27;97127.44;;;26.37;40.12
40838;BME280;29632;49.168;9.848;2022-07-04T07:49:53;97125.91;;;26.41;40.07
40838;BME280;29632;49.168;9.848;2022-07-04T07:52:19;97126.47;;;26.43;40.07
40838;BME280;29632;49.168;9.848;2022-07-04T07:54:45;97125.19;;;26.46;40.23
40838;BME280;29632;49.168;9.848;2022-07-04T07:57:10;97130.78;;;26.44;40.16
40838;BME280;29632;49.168;9.848;2022-07-04T07:59:36;97133.34;;;26.39;40.06
40838;BME280;29632;49.168;9.848;2022-07-04T08:02:02;97124.50;;;26.38;39.86
40838;BME280;29632;49.168;9.848;2022-07-04T08:04:28;97120.56;;;26.41;40.07
40838;BME280;29632;49.168;9.848;2022-07-04T08:07:04;97125.66;;;26.43;40.11
40838;BME280;29632;49.168;9.848;2022-07-04T08:09:30;97127.88;;;26.46;39.77
40838;BME280;29632;49.168;9.848;2022-07-04T08:11:57;97127.13;;;26.50;39.76
40838;BME280;29632;49.168;9.848;2022-07-04T08:14:23;97116.22;;;26.52;39.77
40838;BME280;29632;49.168;9.848;2022-07-04T08:16:49;97113.31;;;26.53;39.67
40838;BME280;29632;49.168;9.848;2022-07-04T08:19:15;97115.06;;;26.60;39.55
40838;BME280;29632;49.168;9.848;2022-07-04T08:21:41;97114.34;;;26.64;39.51
40838;BME280;29632;49.168;9.848;2022-07-04T08:24:06;97112.25;;;26.66;39.62
40838;BME280;29632;49.168;9.848;2022-07-04T08:26:33;97112.84;;;26.68;39.57
40838;BME280;29632;49.168;9.848;2022-07-04T08:28:58;97103.53;;;26.71;39.45
40838;BME280;29632;49.168;9.848;2022-07-04T08:31:27;97108.41;;;26.74;39.39
40838;BME280;29632;49.168;9.848;2022-07-04T08:33:53;97112.44;;;26.77;39.60
40838;BME280;29632;49.168;9.848;2022-07-04T08:36:19;97114.06;;;26.78;39.16
40838;BME280;29632;49.168;9.848;2022-07-04T08:38:45;97116.00;;;26.82;39.31
40838;BME280;29632;49.168;9.848;2022-07-04T08:41:12;97111.00;;;26.86;39.26
40838;BME280;29632;49.168;9.848;2022-07-04T08:43:41;97107.59;;;26.90;39.30
40838;BME280;29632;49.168;9.848;2022-07-04T08:46:10;97105.50;;;26.92;39.29
40838;BME280;29632;49.168;9.848;2022-07-04T08:48:38;97096.28;;;27.00;39.32
40838;BME280;29632;49.168;9.848;2022-07-04T08:51:16;97104.06;;;27.02;39.56
40838;BME280;29632;49.168;9.848;2022-07-04T08:53:50;97102.19;;;27.02;39.38
40838;BME280;29632;49.168;9.848;2022-07-04T08:56:19;97096.94;;;27.07;39.23
40838;BME280;29632;49.168;9.848;2022-07-04T08:59:06;97096.72;;;27.09;39.19
40838;BME280;29632;49.168;9.848;2022-07-04T09:01:33;97097.84;;;27.13;39.61
40838;BME280;29632;49.168;9.848;2022-07-04T09:03:58;97101.97;;;27.21;39.46
40838;BME280;29632;49.168;9.848;2022-07-04T09:06:26;97093.81;;;27.27;39.45
40838;BME280;29632;49.168;9.848;2022-07-04T09:08:54;97098.69;;;27.30;39.17
40838;BME280;29632;49.168;9.848;2022-07-04T09:11:21;97109.78;;;27.39;39.15
40838;BME280;29632;49.168;9.848;2022-07-04T09:13:46;97102.94;;;27.48;39.27
40838;BME280;29632;49.168;9.848;2022-07-04T09:16:12;97116.72;;;27.57;39.32
40838;BME280;29632;49.168;9.848;2022-07-04T09:18:38;97123.53;;;27.65;39.03
40838;BME280;29632;49.168;9.848;2022-07-04T09:21:09;97126.84;;;27.72;38.80
40838;BME280;29632;49.168;9.848;2022-07-04T09:23:44;97123.94;;;27.74;38.49
40838;BME280;29632;49.168;9.848;2022-07-04T09:26:20;97123.44;;;27.77;38.36
40838;BME280;29632;49.168;9.848;2022-07-04T09:28:57;97120.13;;;27.69;38.54
40838;BME280;29632;49.168;9.848;2022-07-04T09:31:29;97129.28;;;27.74;38.26
40838;BME280;29632;49.168;9.848;2022-07-04T09:34:03;97130.09;;;27.74;38.44
40838;BME280;29632;49.168;9.848;2022-07-04T09:36:43;97126.13;;;27.77;38.18
40838;BME280;29632;49.168;9.848;2022-07-04T09:39:18;97121.09;;;27.80;38.22
40838;BME280;29632;49.168;9.848;2022-07-04T09:42:00;97128.91;;;27.87;38.18
40838;BME280;29632;49.168;9.848;2022-07-04T09:46:59;97126.94;;;27.94;37.91
40838;BME280;29632;49.168;9.848;2022-07-04T09:50:02;97125.31;;;27.93;37.78
40838;BME280;29632;49.168;9.848;2022-07-04T09:52:29;97127.56;;;28.01;37.60
40838;BME280;29632;49.168;9.848;2022-07-04T09:55:03;97131.84;;;28.02;37.64
40838;BME280;29632;49.168;9.848;2022-07-04T09:57:31;97135.38;;;28.08;37.00
40838;BME280;29632;49.168;9.848;2022-07-04T10:00:21;97141.50;;;28.03;37.15
40838;BME280;29632;49.168;9.848;2022-07-04T10:02:48;97138.91;;;28.09;36.97
40838;BME280;29632;49.168;9.848;2022-07-04T10:05:24;97133.28;;;28.10;36.60
40838;BME280;29632;49.168;9.848;2022-07-04T10:07:51;97141.72;;;28.19;36.74
40838;BME280;29632;49.168;9.848;2022-07-04T10:10:35;97149.81;;;28.24;36.56
40838;BME280;29632;49.168;9.848;2022-07-04T10:13:06;97144.81;;;28.33;36.08
40838;BME280;29632;49.168;9.848;2022-07-04T10:15:34;97147.56;;;28.38;36.05
40838;BME280;29632;49.168;9.848;2022-07-04T10:18:03;97151.59;;;28.40;35.62
40838;BME280;29632;49.168;9.848;2022-07-04T10:20:29;97146.31;;;28.46;35.59
40838;BME280;29632;49.168;9.848;2022-07-04T10:22:55;97149.28;;;28.49;36.06
40838;BME280;29632;49.168;9.848;2022-07-04T10:25:22;97150.66;;;28.52;35.88
40838;BME280;29632;49.168;9.848;2022-07-04T10:27:48;97142.22;;;28.60;35.89
40838;BME280;29632;49.168;9.848;2022-07-04T10:30:29;97145.81;;;28.71;35.68
40838;BME280;29632;49.168;9.848;2022-07-04T10:33:00;97145.91;;;28.81;35.51
40838;BME280;29632;49.168;9.848;2022-07-04T10:35:55;97147.09;;;28.90;35.22
40838;BME280;29632;49.168;9.848;2022-07-04T10:38:29;97144.28;;;29.07;35.68
40838;BME280;29632;49.168;9.848;2022-07-04T10:45:51;97147.81;;;29.13;34.45
40838;BME280;29632;49.168;9.848;2022-07-04T10:48:24;97156.16;;;29.11;34.40
40838;BME280;29632;49.168;9.848;2022-07-04T10:51:03;97145.22;;;29.18;34.49
40838;BME280;29632;49.168;9.848;2022-07-04T10:53:32;97152.31;;;29.29;34.59
40838;BME280;29632;49.168;9.848;2022-07-04T10:58:44;97148.22;;;29.54;34.38
40838;BME280;29632;49.168;9.848;2022-07-04T11:01:15;97146.69;;;29.68;34.23
40838;BME280;29632;49.168;9.848;2022-07-04T11:03:59;97144.38;;;29.77;33.76
40838;BME280;29632;49.168;9.848;2022-07-04T11:09:23;97153.56;;;29.91;33.69
40838;BME280;29632;49.168;9.848;2022-07-04T11:12:02;97151.75;;;29.97;33.64
40838;BME280;29632;49.168;9.848;2022-07-04T11:14:47;97152.81;;;29.96;34.00
40838;BME280;29632;49.168;9.848;2022-07-04T11:17:19;97153.59;;;29.97;33.67
40838;BME280;29632;49.168;9.848;2022-07-04T11:19:45;97143.44;;;29.99;33.96
40838;BME280;29632;49.168;9.848;2022-07-04T11:22:12;97149.91;;;30.03;33.68
40838;BME280;29632;49.168;9.848;2022-07-04T11:24:38;97140.75;;;30.04;33.43
40838;BME280;29632;49.168;9.848;2022-07-04T11:27:07;97145.91;;;30.10;33.44
40838;BME280;29632;49.168;9.848;2022-07-04T11:29:35;97141.34;;;30.11;33.44
40838;BME280;29632;49.168;9.848;2022-07-04T11:32:01;97126.31;;;30.15;32.91
40838;BME280;29632;49.168;9.848;2022-07-04T11:34:32;97128.53;;;30.23;33.13
40838;BME280;29632;49.168;9.848;2022-07-04T11:36:58;97130.44;;;30.33;33.40
40838;BME280;29632;49.168;9.848;2022-07-04T11:39:27;97126.47;;;30.41;33.22
40838;BME280;29632;49.168;9.848;2022-07-04T11:41:53;97114.38;;;30.43;32.96
40838;BME280;29632;49.168;9.848;2022-07-04T11:44:40;97116.81;;;30.50;33.07
40838;BME280;29632;49.168;9.848;2022-07-04T11:47:44;97119.50;;;30.45;32.20
40838;BME280;29632;49.168;9.848;2022-07-04T11:50:16;97102.03;;;30.42;32.56
40838;BME280;29632;49.168;9.848;2022-07-04T11:52:47;97105.28;;;30.49;32.18
40838;BME280;29632;49.168;9.848;2022-07-04T11:55:16;97103.94;;;30.52;32.75
40838;BME280;29632;49.168;9.848;2022-07-04T11:57:45;97095.88;;;30.62;32.51
40838;BME280;29632;49.168;9.848;2022-07-04T12:00:19;97086.75;;;30.74;32.73
40838;BME280;29632;49.168;9.848;2022-07-04T12:02:48;97080.88;;;30.82;32.37
40838;BME280;29632;49.168;9.848;2022-07-04T12:05:16;97078.72;;;30.89;32.45
40838;BME280;29632;49.168;9.848;2022-07-04T12:07:44;97077.16;;;30.98;32.36
40838;BME280;29632;49.168;9.848;2022-07-04T12:10:17;97071.22;;;31.06;31.90
40838;BME280;29632;49.168;9.848;2022-07-04T12:13:05;97072.31;;;31.16;32.17
40838;BME280;29632;49.168;9.848;2022-07-04T12:18:03;97069.59;;;31.31;32.11
40838;BME280;29632;49.168;9.848;2022-07-04T12:20:31;97063.41;;;31.31;31.70
40838;BME280;29632;49.168;9.848;2022-07-04T12:23:00;97065.03;;;31.37;31.53
40838;BME280;29632;49.168;9.848;2022-07-04T12:25:32;97065.31;;;31.40;31.58
40838;BME280;29632;49.168;9.848;2022-07-04T12:28:08;97061.78;;;31.45;31.81
40838;BME280;29632;49.168;9.848;2022-07-04T12:30:48;97053.19;;;31.53;31.45
40838;BME280;29632;49.168;9.848;2022-07-04T12:33:17;97061.25;;;31.58;31.42
40838;BME280;29632;49.168;9.848;2022-07-04T12:35:52;97055.34;;;31.56;31.16
40838;BME280;29632;49.168;9.848;2022-07-04T12:41:10;97047.00;;;31.63;31.19
40838;BME280;29632;49.168;9.848;2022-07-04T12:46:14;97031.59;;;31.79;31.46
40838;BME280;29632;49.168;9.848;2022-07-04T12:48:41;97038.84;;;31.78;31.10
40838;BME280;29632;49.168;9.848;2022-07-04T12:51:17;97034.59;;;31.67;30.88
40838;BME280;29632;49.168;9.848;2022-07-04T12:53:45;97031.63;;;31.64;31.34
40838;BME280;29632;49.168;9.848;2022-07-04T12:56:34;97023.56;;;31.64;31.39
40838;BME280;29632;49.168;9.848;2022-07-04T12:59:07;97025.41;;;31.73;31.61
40838;BME280;29632;49.168;9.848;2022-07-04T13:01:34;97026.19;;;31.84;31.67
40838;BME280;29632;49.168;9.848;2022-07-04T13:04:00;97019.94;;;31.94;31.17
40838;BME280;29632;49.168;9.848;2022-07-04T13:06:26;97017.22;;;31.99;31.15
40838;BME280;29632;49.168;9.848;2022-07-04T13:08:53;97014.53;;;31.99;30.99
40838;BME280;29632;49.168;9.848;2022-07-04T13:11:19;97008.88;;;32.00;31.37
40838;BME280;29632;49.168;9.848;2022-07-04T13:14:04;97010.78;;;32.05;31.36
40838;BME280;29632;49.168;9.848;2022-07-04T13:16:30;97007.50;;;32.13;31.53
40838;BME280;29632;49.168;9.848;2022-07-04T13:18:56;97009.09;;;32.20;31.36
40838;BME280;29632;49.168;9.848;2022-07-04T13:21:22;97006.09;;;32.26;30.96
40838;BME280;29632;49.168;9.848;2022-07-04T13:23:48;97006.84;;;32.32;31.26
40838;BME280;29632;49.168;9.848;2022-07-04T13:26:15;97004.13;;;32.37;31.29